This is the latest recevied weather packets stored in our database for station/object DL7GAI-7. If no packets are shown the sender has not sent any weather packets the latest 10 day(s).
| Time | Temp. | Humidity | Pressure | Rain* | Wind** | Luminosity | Snow |
|---|---|---|---|---|---|---|---|
| 1777508620 | 11.11° C | 37% | 1022.1 hPa | 0 mm | 6.26 m/s, 45° | - | - |
| 1777507873 | 11.11° C | 37% | 1022.1 hPa | 0 mm | 6.26 m/s, 45° | - | - |
| 1777507080 | 11.67° C | 36% | 1022.1 hPa | 0 mm | 5.36 m/s, 45° | - | - |
| 1777506280 | 11.67° C | 36% | 1022.1 hPa | 0 mm | 5.36 m/s, 45° | - | - |
| 1777505465 | 11.67° C | 37% | 1022 hPa | 0 mm | 4.92 m/s, 45° | - | - |
| 1777504640 | 11.67° C | 37% | 1022 hPa | 0 mm | 4.92 m/s, 45° | - | - |
| 1777503864 | 13.33° C | 32% | 1021.5 hPa | 0 mm | 7.15 m/s, 45° | - | - |
| 1777503085 | 13.33° C | 32% | 1021.5 hPa | 0 mm | 7.15 m/s, 45° | - | - |
| 1777502275 | 13.33° C | 32% | 1021.5 hPa | 0 mm | 7.15 m/s, 45° | - | - |
| 1777501468 | 13.33° C | 32% | 1021.5 hPa | 0 mm | 7.15 m/s, 45° | - | - |
| 1777500670 | 13.33° C | 32% | 1021.5 hPa | 0 mm | 7.15 m/s, 45° | - | - |
| 1777499843 | 13.89° C | 34% | 1021 hPa | 0 mm | 5.36 m/s, 45° | - | - |
| 1777498970 | 13.89° C | 34% | 1021 hPa | 0 mm | 5.36 m/s, 45° | - | - |
| 1777498160 | 13.89° C | 34% | 1021 hPa | 0 mm | 5.36 m/s, 45° | - | - |
| 1777497360 | 13.89° C | 34% | 1021 hPa | 0 mm | 5.36 m/s, 45° | - | - |
| 1777496490 | 14.44° C | 37% | 1020.6 hPa | 0 mm | 5.36 m/s, 45° | - | - |
| 1777495590 | 14.44° C | 37% | 1020.6 hPa | 0 mm | 5.36 m/s, 45° | - | - |
| 1777494720 | 14.44° C | 38% | 1020.3 hPa | 0 mm | 4.02 m/s, 45° | - | - |
| 1777493900 | 14.44° C | 38% | 1020.3 hPa | 0 mm | 4.02 m/s, 45° | - | - |
| 1777493142 | 15° C | 36% | 1019.8 hPa | 0 mm | 3.13 m/s, 90° | - | - |
| 1777492330 | 15° C | 36% | 1019.8 hPa | 0 mm | 3.13 m/s, 90° | - | - |
| 1777491553 | 15° C | 36% | 1019.8 hPa | 0 mm | 3.13 m/s, 90° | - | - |
| 1777490733 | 16.67° C | 33% | 1018.9 hPa | 0 mm | 4.02 m/s, 45° | - | - |
| 1777489960 | 16.67° C | 33% | 1018.9 hPa | 0 mm | 4.02 m/s, 45° | - | - |
| 1777489140 | 16.67° C | 33% | 1018.9 hPa | 0 mm | 4.02 m/s, 45° | - | - |
* Rain latest hour (hover to see other rain measurements)
** Current wind speed in m/s (hover to see current wind gust speed)